Ana Sayfa
METAR-TAF:

METAR-TAF

Havaalanları :

Cairo Regional Airport

Cairo, Illinois, Amerika Birleşik Devletleri

Enlem: 37-03-52N, Boylam: 089-13-10W, yükseklik: 98 m

Güncel hava durumu gözlemi

Rapor saat 17:35 UTC de 41 dakika önce yapıldı.
Rüzgar güneybatıdan 9 kt
Sıcaklık 34°C
Nem 60%
Basınç 1014 hPa
Görüş mesafesi: 16.1 km
Açık gökyüzü

METAR: KCIR 251735Z AUTO 23009KT 10SM CLR 34/25 A2994 RMK AO2 T03390245

Saat: 13:16 (18:16 UTC)


TAF: eksik

4.000'den fazla havaalanı için hava durumu gözlemleri ve tahminleri (METAR ve TAF raporları).

Kullanılabilir istasyonlar harita üzerinde sarı ve kırmızı noktalarla gösterilir.

İstasyonun adını görmek için fareyi noktanın üzerinde gezdirin.

Sonrasında hava gözlem ve tahminlerini görmek için tıklayın.

Haritayı değiştirmek için: yaklaştırmak için siyah artı işaretli yeşil düğmeye ve uzaklaştırmak için de eksi işaretli düğmeye hızla tıklayın; bitişik haritalar için yeşil okları kullanın.


METAR-TAF: